Time;durP1;ratioP1;P1;durP2;ratioP2;P2;SDS_P1;SDS_P2;PMS_P1;PMS_P2;Temp;Humidity;BMP_temperature;BMP_pressure;BME280_temperature;BME280_humidity;BME280_pressure;Samples;Min_cycle;Max_cycle;Signal;HPM_P1;HPM_P2
2022/08/01 00:01:24;;;;;;;2.08;1.88;;;;;;;19.86;60.46;100152.44;5068555;28;20155;-68
2022/08/01 00:03:50;;;;;;;6.60;2.58;;;;;;;19.83;60.70;100160.19;5086514;28;20413;-68
2022/08/01 00:06:15;;;;;;;2.90;2.05;;;;;;;19.78;60.88;100152.59;5080046;28;20020;-68
2022/08/01 00:08:41;;;;;;;4.60;2.08;;;;;;;19.76;61.04;100162.84;5066139;28;20500;-68
2022/08/01 00:11:08;;;;;;;4.80;2.13;;;;;;;19.72;61.07;100153.41;5065777;28;20028;-68
2022/08/01 00:13:33;;;;;;;2.85;1.80;;;;;;;19.53;61.35;100139.59;5071403;28;20029;-68
2022/08/01 00:15:59;;;;;;;5.70;2.05;;;;;;;19.54;61.81;100157.63;5094498;28;20035;-68
2022/08/01 00:18:24;;;;;;;3.83;2.20;;;;;;;19.51;62.07;100158.03;5086056;28;20078;-66
2022/08/01 00:20:50;;;;;;;3.90;1.88;;;;;;;19.47;61.90;100160.28;5086555;28;20024;-67
2022/08/01 00:23:15;;;;;;;5.47;2.40;;;;;;;19.44;62.07;100146.25;5060461;28;20025;-68
2022/08/01 00:25:41;;;;;;;4.13;2.10;;;;;;;19.43;62.29;100156.28;5066248;28;20444;-68
2022/08/01 00:28:08;;;;;;;3.15;2.17;;;;;;;19.44;62.42;100152.50;5078770;28;20032;-67
2022/08/01 00:30:34;;;;;;;2.55;2.17;;;;;;;19.31;62.37;100138.78;5086397;28;20105;-67
2022/08/01 00:33:00;;;;;;;2.72;1.85;;;;;;;19.35;62.69;100150.97;5086020;28;20028;-68
2022/08/01 00:35:25;;;;;;;6.00;2.10;;;;;;;19.26;62.84;100146.72;5085792;28;20031;-68
2022/08/01 00:37:51;;;;;;;5.80;2.22;;;;;;;19.21;63.17;100143.69;5086544;28;20027;-66
2022/08/01 00:40:16;;;;;;;3.08;2.45;;;;;;;19.19;63.75;100151.19;5085951;28;20114;-66
2022/08/01 00:42:42;;;;;;;6.45;2.20;;;;;;;19.10;63.67;100143.34;5086178;28;20019;-68
2022/08/01 00:45:08;;;;;;;2.67;2.38;;;;;;;19.00;63.83;100130.09;5086371;28;20072;-68
2022/08/01 00:47:33;;;;;;;3.60;2.25;;;;;;;19.10;63.60;100137.91;5086030;28;20020;-68
2022/08/01 00:49:59;;;;;;;4.57;2.40;;;;;;;19.06;63.65;100136.63;5085852;28;20072;-68
2022/08/01 00:52:25;;;;;;;2.85;2.03;;;;;;;19.07;63.75;100141.03;5051151;28;20024;-68
2022/08/01 00:54:51;;;;;;;3.90;2.35;;;;;;;19.02;63.79;100138.06;5064781;28;20051;-68
2022/08/01 00:57:16;;;;;;;3.33;2.05;;;;;;;18.98;64.04;100131.31;5064747;28;20040;-68
2022/08/01 00:59:42;;;;;;;2.28;1.77;;;;;;;18.96;63.85;100128.78;5072386;28;20028;-68
2022/08/01 01:02:07;;;;;;;2.15;1.90;;;;;;;18.80;64.13;100103.72;5069273;28;20081;-68
2022/08/01 01:04:33;;;;;;;4.18;2.00;;;;;;;18.80;64.23;100103.72;5073025;28;20146;-68
2022/08/01 01:07:21;;;;;;;3.13;2.50;;;;;;;18.88;64.59;100128.06;5081237;28;20028;-68
2022/08/01 01:10:00;;;;;;;3.25;2.33;;;;;;;18.88;64.52;100123.47;5046773;28;20029;-68
2022/08/01 01:12:47;;;;;;;3.30;2.22;;;;;;;18.90;64.38;100115.13;5046770;28;20482;-68
2022/08/01 01:15:22;;;;;;;2.75;2.10;;;;;;;18.89;64.45;100118.91;5064493;28;20207;-68
2022/08/01 01:17:56;;;;;;;7.20;2.75;;;;;;;18.89;64.63;100121.59;5065275;28;20035;-68
2022/08/01 01:20:24;;;;;;;;;;;;;;;18.84;64.79;100126.75;5064566;28;20032;-67
2022/08/01 01:22:52;;;;;;;2.63;2.05;;;;;;;18.78;65.07;100124.81;5068554;28;19969;-68
2022/08/01 01:25:46;;;;;;;3.95;2.30;;;;;;;18.69;65.09;100118.66;5068656;28;20032;-68
2022/08/01 01:28:34;;;;;;;4.13;2.40;;;;;;;18.59;65.69;100118.13;5067292;28;20462;-67
2022/08/01 01:31:00;;;;;;;2.97;2.33;;;;;;;18.54;66.06;100115.13;5068409;28;20032;-67
2022/08/01 01:33:31;;;;;;;2.35;2.15;;;;;;;18.42;66.17;100102.22;5068557;28;20021;-67
2022/08/01 01:36:05;;;;;;;3.17;2.15;;;;;;;18.49;66.17;100117.56;5067817;28;20036;-67
2022/08/01 01:38:41;;;;;;;3.03;2.17;;;;;;;18.27;66.33;100085.94;5068411;28;20078;-67
2022/08/01 01:41:08;;;;;;;3.22;2.28;;;;;;;18.39;66.57;100111.59;5066520;28;20040;-68
2022/08/01 01:43:36;;;;;;;5.97;2.90;;;;;;;18.38;67.20;100115.31;5067792;28;20086;-68
2022/08/01 01:46:04;;;;;;;3.40;2.58;;;;;;;18.28;67.42;100090.31;5066671;28;20764;-67
2022/08/01 01:48:32;;;;;;;3.70;2.53;;;;;;;18.32;67.36;100099.78;5068285;28;20433;-67
2022/08/01 01:50:59;;;;;;;2.95;2.30;;;;;;;18.26;67.91;100095.13;5067461;28;20426;-68
2022/08/01 01:53:28;;;;;;;4.22;2.67;;;;;;;18.22;68.35;100095.69;5067219;28;20090;-67
2022/08/01 01:55:57;;;;;;;4.68;2.75;;;;;;;18.20;68.33;100089.59;5067400;28;20034;-67
2022/08/01 01:58:24;;;;;;;3.15;2.40;;;;;;;18.04;68.54;100074.34;5068250;28;20081;-67
2022/08/01 02:00:52;;;;;;;3.58;2.67;;;;;;;18.06;68.75;100085.88;5068331;28;20044;-68
2022/08/01 02:03:20;;;;;;;2.72;2.38;;;;;;;18.10;68.92;100090.72;5069271;28;20060;-68
2022/08/01 02:05:47;;;;;;;5.03;2.42;;;;;;;17.95;69.01;100070.03;5079684;28;20060;-68
2022/08/01 02:08:16;;;;;;;3.60;2.63;;;;;;;18.00;69.01;100083.91;5067953;28;20040;-68
2022/08/01 02:11:29;;;;;;;3.40;2.83;;;;;;;18.04;69.02;100086.06;5086270;28;20499;-68
2022/08/01 02:13:32;;;;;;;3.05;2.63;;;;;;;18.07;68.83;100095.69;5068602;28;20144;-67
2022/08/01 02:15:58;;;;;;;4.97;3.17;;;;;;;17.99;68.57;100096.63;5081561;28;20066;-67
2022/08/01 02:18:24;;;;;;;3.85;2.70;;;;;;;17.91;68.68;100088.59;5067725;28;20494;-67
2022/08/01 02:20:53;;;;;;;2.53;2.33;;;;;;;17.92;68.80;100097.53;5067855;28;20028;-67
2022/08/01 02:23:21;;;;;;;3.38;2.83;;;;;;;17.86;69.40;100101.00;5067804;28;20025;-67
2022/08/01 02:25:50;;;;;;;5.05;2.75;;;;;;;17.78;69.69;100098.41;5087373;28;20024;-67
2022/08/01 02:28:25;;;;;;;2.90;2.50;;;;;;;17.74;70.15;100094.38;5087540;28;20473;-68
2022/08/01 02:30:51;;;;;;;4.07;2.63;;;;;;;17.70;70.50;100099.31;5088031;28;20054;-68
2022/08/01 02:33:20;;;;;;;3.50;3.20;;;;;;;17.62;70.53;100098.56;5084660;28;20474;-68
2022/08/01 02:35:50;;;;;;;5.95;3.03;;;;;;;17.61;70.65;100107.72;5049912;28;20024;-67
2022/08/01 02:38:19;;;;;;;3.35;2.63;;;;;;;17.54;71.40;100102.19;5067689;28;20020;-66
2022/08/01 02:40:47;;;;;;;3.53;3.20;;;;;;;17.36;71.63;100084.56;5067618;28;20036;-67
2022/08/01 02:43:17;;;;;;;4.75;2.95;;;;;;;17.35;71.94;100096.44;5067069;28;20112;-67
2022/08/01 02:45:47;;;;;;;6.63;3.85;;;;;;;17.29;72.60;100089.84;5072875;28;20032;-67
2022/08/01 02:48:15;;;;;;;6.65;3.58;;;;;;;17.29;73.04;100094.44;5079796;28;20051;-67
2022/08/01 02:50:43;;;;;;;6.57;3.15;;;;;;;17.25;73.03;100101.25;5067678;28;20040;-67
2022/08/01 02:53:12;;;;;;;6.55;3.22;;;;;;;17.13;73.45;100083.75;5067129;28;20041;-67
2022/08/01 02:55:40;;;;;;;3.92;3.17;;;;;;;17.17;73.64;100093.19;5067510;28;20442;-68
2022/08/01 02:58:08;;;;;;;5.22;3.15;;;;;;;17.12;73.84;100092.91;5082341;28;20513;-68
2022/08/01 03:00:35;;;;;;;4.35;3.22;;;;;;;16.98;74.22;100063.88;5067155;28;20055;-68
2022/08/01 03:03:02;;;;;;;4.35;2.95;;;;;;;17.10;74.44;100089.53;5066885;28;20427;-68
2022/08/01 03:05:30;;;;;;;5.63;3.30;;;;;;;17.11;74.67;100083.91;5066702;28;20032;-68
2022/08/01 03:07:57;;;;;;;6.00;3.65;;;;;;;17.12;74.80;100091.00;5074975;28;20046;-68
2022/08/01 03:10:26;;;;;;;4.93;3.38;;;;;;;17.10;75.14;100097.66;5087018;28;20114;-68
2022/08/01 03:12:52;;;;;;;7.85;3.60;;;;;;;16.96;75.14;100080.31;5086278;28;20108;-68
2022/08/01 03:15:19;;;;;;;5.90;4.07;;;;;;;16.95;75.20;100089.47;5086263;28;20075;-67
2022/08/01 03:17:46;;;;;;;9.77;3.70;;;;;;;16.95;75.52;100104.88;5067097;28;20027;-68
2022/08/01 03:20:14;;;;;;;4.28;3.67;;;;;;;16.88;75.98;100096.63;5066811;28;20036;-67
2022/08/01 03:22:43;;;;;;;9.27;3.88;;;;;;;16.92;76.10;100107.94;5102092;28;20059;-67
2022/08/01 03:25:12;;;;;;;5.68;3.78;;;;;;;16.75;76.41;100079.28;5087107;28;20435;-67
2022/08/01 03:27:40;;;;;;;4.53;3.60;;;;;;;16.81;76.49;100092.13;5068950;28;20032;-67
2022/08/01 03:30:06;;;;;;;6.60;4.15;;;;;;;16.85;76.50;100099.69;5072220;28;20119;-68
2022/08/01 03:32:33;;;;;;;3.92;3.53;;;;;;;16.86;77.01;100103.25;5066296;28;20039;-68
2022/08/01 03:34:58;;;;;;;5.00;3.60;;;;;;;16.83;77.38;100104.44;5082300;28;20436;-68
2022/08/01 03:37:45;;;;;;;5.38;3.72;;;;;;;16.83;77.55;100098.22;5086136;28;20032;-68
2022/08/01 03:40:20;;;;;;;4.38;3.55;;;;;;;16.64;77.58;100079.72;5086385;28;20111;-68
2022/08/01 03:42:49;;;;;;;5.35;3.88;;;;;;;16.78;78.05;100100.59;5068082;28;20435;-68
2022/08/01 03:45:21;;;;;;;6.13;4.15;;;;;;;16.74;77.96;100108.25;5083284;28;20043;-66
2022/08/01 03:47:48;;;;;;;5.75;3.65;;;;;;;16.71;77.54;100108.59;5066715;28;20077;-67
2022/08/01 03:50:17;;;;;;;8.68;4.15;;;;;;;16.73;77.99;100113.84;5063961;28;20036;-67
2022/08/01 03:52:46;;;;;;;13.25;4.05;;;;;;;16.72;78.26;100118.41;5078710;28;20031;-67
2022/08/01 03:55:14;;;;;;;5.75;4.20;;;;;;;16.72;78.39;100101.31;5086602;28;20098;-67
2022/08/01 03:57:42;;;;;;;6.90;4.00;;;;;;;16.68;78.74;100099.97;5057794;28;20682;-67
2022/08/01 04:00:08;;;;;;;4.30;3.90;;;;;;;16.83;78.70;100119.88;5066297;28;20055;-67
2022/08/01 04:02:34;;;;;;;5.10;4.10;;;;;;;16.90;78.50;100118.13;5066414;28;20547;-67
2022/08/01 04:05:02;;;;;;;8.90;4.20;;;;;;;16.81;78.29;100101.09;5082784;28;20081;-66
2022/08/01 04:07:30;;;;;;;8.75;4.18;;;;;;;16.96;78.47;100120.13;5086703;28;20104;-68
2022/08/01 04:09:56;;;;;;;9.00;4.13;;;;;;;16.96;78.44;100112.81;5086530;28;20081;-67
2022/08/01 04:12:22;;;;;;;7.43;4.18;;;;;;;17.04;78.65;100111.91;5086126;28;20028;-68
2022/08/01 04:14:48;;;;;;;9.18;4.35;;;;;;;17.14;78.84;100126.06;5086368;28;20469;-68
2022/08/01 04:17:14;;;;;;;13.23;5.30;;;;;;;17.23;79.00;100123.13;5082497;28;20051;-69
2022/08/01 04:19:40;;;;;;;6.78;4.85;;;;;;;17.35;78.42;100121.66;5082424;28;20041;-68
2022/08/01 04:22:08;;;;;;;10.07;5.03;;;;;;;17.43;77.98;100109.94;5071098;28;20024;-68
2022/08/01 04:24:36;;;;;;;10.15;4.43;;;;;;;17.57;76.86;100131.66;5065980;28;20029;-67
2022/08/01 04:27:07;;;;;;;5.95;3.90;;;;;;;17.71;75.31;100122.69;5065954;28;20067;-67
2022/08/01 04:29:34;;;;;;;5.13;4.20;;;;;;;17.83;74.84;100129.34;5066241;28;20025;-67
2022/08/01 04:32:01;;;;;;;6.32;3.72;;;;;;;17.99;74.51;100131.91;5084226;28;20450;-67
2022/08/01 04:34:30;;;;;;;7.00;4.65;;;;;;;18.15;74.18;100130.88;5085906;28;20028;-68
2022/08/01 04:36:57;;;;;;;8.27;4.55;;;;;;;18.25;73.48;100126.00;5082609;28;20026;-66
2022/08/01 04:39:28;;;;;;;8.85;4.75;;;;;;;18.48;72.91;100139.50;5070945;28;20382;-68
2022/08/01 04:41:58;;;;;;;8.82;4.72;;;;;;;18.58;71.78;100134.59;5086007;28;20054;-67
2022/08/01 04:44:26;;;;;;;16.30;5.28;;;;;;;18.73;70.59;100133.53;5085872;28;20074;-67
2022/08/01 04:46:54;;;;;;;8.00;4.85;;;;;;;18.85;69.59;100120.28;5082101;28;20083;-67
2022/08/01 04:49:21;;;;;;;8.40;4.60;;;;;;;19.05;68.53;100138.50;5065350;28;20434;-67
2022/08/01 04:52:00;;;;;;;12.05;4.88;;;;;;;18.99;68.02;100105.81;5078232;28;20020;-67
2022/08/01 04:54:33;;;;;;;9.13;5.25;;;;;;;19.25;67.83;100144.16;5082652;28;20042;-67
2022/08/01 04:57:02;;;;;;;11.50;4.32;;;;;;;19.39;67.81;100149.56;5089338;28;20501;-67
2022/08/01 04:59:40;;;;;;;7.55;5.30;;;;;;;19.51;67.23;100139.81;5081357;28;20035;-67
2022/08/01 05:02:14;;;;;;;6.90;4.60;;;;;;;19.69;65.88;100134.75;5089274;28;20474;-67
2022/08/01 05:04:41;;;;;;;7.13;4.57;;;;;;;19.83;65.17;100141.13;5067505;28;20028;-67
2022/08/01 05:07:07;;;;;;;6.65;4.80;;;;;;;19.93;64.55;100133.44;5074639;28;20375;-67
2022/08/01 05:09:33;;;;;;;10.50;5.03;;;;;;;20.03;64.08;100125.75;5074746;28;20035;-68
2022/08/01 05:12:01;;;;;;;7.85;4.80;;;;;;;20.14;64.34;100141.56;5078701;28;20032;-68
2022/08/01 05:14:28;;;;;;;8.20;4.80;;;;;;;20.31;63.23;100139.38;5081050;28;20470;-68
2022/08/01 05:16:53;;;;;;;10.80;4.78;;;;;;;20.39;62.98;100136.47;5051488;28;20023;-68
2022/08/01 05:19:19;;;;;;;13.95;3.80;;;;;;;20.56;62.25;100135.91;5079471;28;20437;-67
2022/08/01 05:21:45;;;;;;;7.15;3.88;;;;;;;20.69;61.18;100121.50;5071728;28;20481;-68
2022/08/01 05:24:10;;;;;;;6.68;4.00;;;;;;;20.80;60.96;100123.66;5084780;28;20114;-67
2022/08/01 05:26:36;;;;;;;5.97;3.72;;;;;;;20.83;60.73;100128.69;5088120;28;20726;-67
2022/08/01 05:29:02;;;;;;;11.73;4.45;;;;;;;20.93;60.94;100142.78;5068212;28;20046;-68
2022/08/01 05:31:28;;;;;;;4.53;3.70;;;;;;;21.03;60.16;100140.53;5087151;28;20111;-66
2022/08/01 05:33:54;;;;;;;5.07;4.43;;;;;;;21.04;60.29;100137.59;5088302;28;20162;-67
2022/08/01 05:36:19;;;;;;;5.05;3.85;;;;;;;21.12;60.22;100134.66;5087425;28;20024;-68
2022/08/01 05:38:45;;;;;;;5.10;3.88;;;;;;;21.25;59.84;100139.31;5089217;28;20054;-68
2022/08/01 05:41:10;;;;;;;11.25;4.50;;;;;;;21.20;59.62;100129.03;5066135;28;20165;-67
2022/08/01 05:43:36;;;;;;;8.50;4.15;;;;;;;21.32;59.74;100137.44;5068631;28;20126;-66
2022/08/01 05:46:02;;;;;;;5.50;3.70;;;;;;;21.42;59.24;100137.84;5079411;28;20024;-66
2022/08/01 05:48:27;;;;;;;5.88;4.00;;;;;;;21.46;59.45;100139.97;5088573;28;20028;-66
2022/08/01 05:50:53;;;;;;;8.50;4.53;;;;;;;21.64;58.69;100129.25;5077060;28;20063;-67
2022/08/01 05:53:19;;;;;;;6.55;3.75;;;;;;;21.68;58.66;100135.13;5067948;28;20016;-67
2022/08/01 05:55:45;;;;;;;5.38;3.58;;;;;;;21.80;58.52;100142.50;5050651;28;20024;-67
2022/08/01 05:58:10;;;;;;;4.55;3.58;;;;;;;21.93;58.64;100147.13;5068623;28;20037;-67
2022/08/01 06:00:36;;;;;;;6.85;3.40;;;;;;;22.08;58.26;100143.13;5085492;28;20131;-67
2022/08/01 06:03:01;;;;;;;8.55;4.28;;;;;;;22.30;57.44;100141.81;5068358;28;20029;-67
2022/08/01 06:05:27;;;;;;;8.77;3.75;;;;;;;22.41;56.63;100126.66;5071526;28;20065;-67
2022/08/01 06:07:53;;;;;;;11.15;3.80;;;;;;;22.59;56.58;100145.94;5085177;28;20044;-66
2022/08/01 06:10:19;;;;;;;10.10;3.67;;;;;;;22.76;55.79;100158.06;5088659;28;20028;-67
2022/08/01 06:12:44;;;;;;;6.30;3.22;;;;;;;22.91;55.55;100147.69;5074631;28;20021;-67
2022/08/01 06:15:10;;;;;;;3.85;2.80;;;;;;;23.05;55.53;100151.22;5078407;28;20076;-67
2022/08/01 06:17:36;;;;;;;3.92;2.78;;;;;;;23.27;54.20;100147.09;5088419;28;20038;-68
2022/08/01 06:20:02;;;;;;;5.13;3.35;;;;;;;23.30;54.29;100122.88;5085428;28;20028;-67
2022/08/01 06:22:27;;;;;;;3.50;2.83;;;;;;;23.48;54.03;100144.84;5069741;28;20089;-68
2022/08/01 06:24:53;;;;;;;4.22;3.30;;;;;;;23.61;54.07;100147.50;5088218;28;20082;-67
2022/08/01 06:27:19;;;;;;;4.90;2.42;;;;;;;23.81;53.72;100137.19;5088121;28;20024;-68
2022/08/01 06:29:44;;;;;;;7.05;2.97;;;;;;;24.00;52.86;100133.47;5087915;28;20031;-67
2022/08/01 06:32:09;;;;;;;4.45;2.85;;;;;;;24.14;52.55;100132.28;5087631;28;20019;-68
2022/08/01 06:34:35;;;;;;;3.25;2.88;;;;;;;24.29;51.46;100134.66;5068405;28;20166;-66
2022/08/01 06:37:01;;;;;;;2.90;2.40;;;;;;;24.48;51.09;100133.59;5072547;28;20526;-67
2022/08/01 06:39:26;;;;;;;7.65;2.80;;;;;;;24.59;51.25;100137.44;5067343;28;20470;-67
2022/08/01 06:41:52;;;;;;;6.10;2.63;;;;;;;24.77;51.05;100129.25;5076034;28;20108;-67
2022/08/01 06:44:18;;;;;;;3.83;2.42;;;;;;;24.97;50.56;100127.91;5087649;28;20035;-67
2022/08/01 06:46:43;;;;;;;6.05;3.00;;;;;;;25.25;48.88;100124.56;5087677;28;20020;-68
2022/08/01 06:49:08;;;;;;;7.03;3.28;;;;;;;25.33;49.04;100126.97;5087262;28;20036;-68
2022/08/01 06:51:34;;;;;;;9.43;2.78;;;;;;;25.48;48.95;100138.38;5070683;28;20074;-67
2022/08/01 06:53:59;;;;;;;4.95;2.90;;;;;;;25.71;47.63;100133.78;5067115;28;20121;-67
2022/08/01 06:56:25;;;;;;;5.00;2.63;;;;;;;25.84;47.13;100129.94;5066943;28;20073;-67
2022/08/01 06:58:50;;;;;;;4.55;2.78;;;;;;;26.01;46.22;100131.78;5077103;28;20043;-67
2022/08/01 07:01:16;;;;;;;4.05;2.50;;;;;;;26.12;45.48;100130.94;5087311;28;20039;-67
2022/08/01 07:03:42;;;;;;;3.95;2.38;;;;;;;26.17;45.71;100139.31;5084985;28;20081;-68
2022/08/01 07:06:07;;;;;;;4.55;2.45;;;;;;;26.32;45.19;100138.81;5066547;28;20056;-66
2022/08/01 07:08:33;;;;;;;7.00;2.53;;;;;;;26.47;44.80;100134.50;5078023;28;20039;-67
2022/08/01 07:10:59;;;;;;;5.07;2.25;;;;;;;26.50;44.52;100133.16;5071987;28;20029;-67
2022/08/01 07:13:30;;;;;;;5.13;2.78;;;;;;;26.56;44.72;100132.19;5080871;28;20020;-67
2022/08/01 07:15:56;;;;;;;6.07;2.25;;;;;;;26.63;43.99;100130.16;5087085;28;20050;-67
2022/08/01 07:18:22;;;;;;;4.85;2.00;;;;;;;26.65;43.18;100113.41;5086307;28;20024;-66
2022/08/01 07:20:49;;;;;;;7.45;2.40;;;;;;;26.83;42.88;100125.13;5086422;28;20042;-66
2022/08/01 07:23:15;;;;;;;4.60;2.67;;;;;;;26.94;42.60;100115.97;5086947;28;20106;-67
2022/08/01 07:25:41;;;;;;;8.50;2.15;;;;;;;26.98;42.72;100105.31;5086920;28;20035;-66
2022/08/01 07:28:07;;;;;;;3.85;2.10;;;;;;;27.18;42.54;100112.00;5066958;28;20039;-66
2022/08/01 07:30:32;;;;;;;3.83;2.28;;;;;;;27.29;42.20;100111.16;5092744;28;20024;-67
2022/08/01 07:32:58;;;;;;;3.33;2.00;;;;;;;27.40;41.48;100115.75;5074530;28;20637;-67
2022/08/01 07:35:23;;;;;;;3.42;1.95;;;;;;;27.52;39.96;100116.53;5073893;28;20032;-68
2022/08/01 07:37:48;;;;;;;3.42;1.88;;;;;;;27.64;39.96;100106.28;5086994;28;20032;-67
2022/08/01 07:40:15;;;;;;;3.53;1.88;;;;;;;27.67;39.29;100108.53;5086231;28;20016;-66
2022/08/01 07:42:44;;;;;;;6.50;1.90;;;;;;;27.58;39.80;100114.69;5086520;28;20397;-67
2022/08/01 07:45:10;;;;;;;6.45;2.15;;;;;;;27.64;39.35;100117.31;5086817;28;20031;-68
2022/08/01 07:47:36;;;;;;;4.00;2.20;;;;;;;27.70;39.04;100104.44;5086526;28;20031;-67
2022/08/01 07:50:04;;;;;;;4.25;1.80;;;;;;;27.84;38.26;100109.34;5081120;28;20043;-66
2022/08/01 07:52:30;;;;;;;5.40;1.95;;;;;;;28.03;38.22;100108.03;5086451;28;20413;-66
2022/08/01 07:54:56;;;;;;;2.42;1.80;;;;;;;27.96;38.62;100114.81;5070310;28;20047;-67
2022/08/01 07:57:23;;;;;;;4.43;2.05;;;;;;;28.07;38.29;100108.34;5068298;28;20473;-68
2022/08/01 07:59:49;;;;;;;4.03;1.90;;;;;;;28.05;37.90;100102.25;5061516;28;20127;-67
2022/08/01 08:02:14;;;;;;;3.03;1.85;;;;;;;28.05;38.33;100114.13;5069176;28;20139;-68
2022/08/01 08:04:41;;;;;;;2.83;1.65;;;;;;;28.07;37.94;100106.44;5086310;28;20531;-67
2022/08/01 08:07:06;;;;;;;3.33;1.73;;;;;;;28.14;37.42;100096.03;5071227;28;20024;-67
2022/08/01 08:09:32;;;;;;;2.97;1.70;;;;;;;28.25;37.70;100106.13;5066055;28;20470;-68
2022/08/01 08:11:57;;;;;;;1.95;1.75;;;;;;;28.32;37.20;100108.72;5086256;28;20717;-67
2022/08/01 08:14:23;;;;;;;2.92;1.90;;;;;;;28.39;37.48;100098.31;5086233;28;20035;-67
2022/08/01 08:16:49;;;;;;;5.38;1.92;;;;;;;28.52;36.35;100092.44;5073117;28;20027;-67
2022/08/01 08:19:15;;;;;;;2.28;1.70;;;;;;;28.61;36.55;100101.13;5083466;28;20036;-67
2022/08/01 08:21:41;;;;;;;3.00;2.00;;;;;;;28.60;36.95;100105.81;5085731;28;20031;-66
2022/08/01 08:24:20;;;;;;;2.70;1.90;;;;;;;28.62;36.60;100106.38;5073034;28;20052;-67
2022/08/01 08:26:46;;;;;;;3.47;1.83;;;;;;;28.54;36.35;100095.81;5077657;28;20028;-67
2022/08/01 08:29:12;;;;;;;2.28;1.73;;;;;;;28.50;35.77;100095.47;5066188;28;20040;-67
2022/08/01 08:31:37;;;;;;;3.30;1.65;;;;;;;28.57;35.83;100099.97;5075891;28;20036;-67
2022/08/01 08:34:03;;;;;;;4.85;1.83;;;;;;;28.59;35.84;100103.31;5087998;28;20158;-67
2022/08/01 08:36:28;;;;;;;2.58;1.50;;;;;;;28.65;35.88;100097.59;5089946;28;20016;-66
2022/08/01 08:38:54;;;;;;;8.57;1.60;;;;;;;28.67;35.19;100094.56;5090144;28;20105;-67
2022/08/01 08:41:21;;;;;;;2.08;1.40;;;;;;;28.76;35.05;100118.72;5080233;28;20036;-67
2022/08/01 08:43:47;;;;;;;1.65;1.52;;;;;;;28.76;34.66;100099.41;5090071;28;20028;-67
2022/08/01 08:46:14;;;;;;;3.55;1.80;;;;;;;28.83;35.08;100099.19;5090036;28;20031;-68
2022/08/01 08:48:40;;;;;;;4.18;1.92;;;;;;;28.78;35.11;100090.84;5090032;28;20024;-66
2022/08/01 08:51:08;;;;;;;9.68;1.73;;;;;;;28.99;35.03;100103.78;5079601;28;20095;-67
2022/08/01 08:53:35;;;;;;;4.32;1.80;;;;;;;29.11;33.87;100105.34;5066905;28;20523;-67
2022/08/01 08:56:02;;;;;;;1.80;1.63;;;;;;;29.18;34.02;100107.91;5069503;28;20037;-67
2022/08/01 08:58:28;;;;;;;4.07;2.15;;;;;;;29.12;34.35;100092.38;5071050;28;20025;-67
2022/08/01 09:00:57;;;;;;;2.70;1.90;;;;;;;29.27;34.33;100117.41;5050861;28;20051;-67
2022/08/01 09:03:22;;;;;;;7.97;2.53;;;;;;;29.28;33.47;100102.47;5074757;28;20036;-67
2022/08/01 09:05:48;;;;;;;5.38;2.00;;;;;;;29.26;34.41;100102.72;5089588;28;20081;-66
2022/08/01 09:08:13;;;;;;;6.70;2.35;;;;;;;29.29;33.90;100104.97;5088051;28;20028;-67
2022/08/01 09:10:39;;;;;;;7.28;2.47;;;;;;;29.27;33.93;100100.81;5068867;28;20031;-67
2022/08/01 09:13:14;;;;;;;4.07;2.80;;;;;;;29.40;34.09;100106.72;5079866;28;20036;-66
2022/08/01 09:15:45;;;;;;;4.38;2.80;;;;;;;29.44;33.83;100107.06;5069009;28;20363;-67
2022/08/01 09:18:40;;;;;;;5.15;2.83;;;;;;;29.48;33.60;100105.44;5051092;28;20036;-67
2022/08/01 09:21:06;;;;;;;6.55;2.70;;;;;;;29.47;33.85;100099.06;5071531;28;20041;-67
2022/08/01 09:23:35;;;;;;;7.15;2.80;;;;;;;29.53;34.10;100099.97;5079144;28;20020;-67
2022/08/01 09:26:00;;;;;;;7.00;3.10;;;;;;;29.55;33.79;100103.28;5088996;28;20052;-67
2022/08/01 09:28:30;;;;;;;7.78;2.90;;;;;;;29.60;33.93;100101.38;5079805;28;20036;-67
2022/08/01 09:31:05;;;;;;;5.43;2.92;;;;;;;29.74;33.50;100096.28;5084645;28;20486;-67
2022/08/01 09:33:55;;;;;;;4.28;2.42;;;;;;;29.81;33.41;100097.72;5088205;28;20105;-66
2022/08/01 09:36:25;;;;;;;5.70;2.45;;;;;;;29.91;32.93;100083.97;5058010;28;20081;-68
2022/08/01 09:38:54;;;;;;;6.10;2.25;;;;;;;30.06;32.50;100088.78;5068432;28;20024;-67
2022/08/01 09:41:31;;;;;;;3.80;2.30;;;;;;;30.03;32.78;100090.16;5082332;28;20039;-67
2022/08/01 09:43:57;;;;;;;4.88;2.90;;;;;;;30.06;32.41;100091.53;5049911;28;20043;-67
2022/08/01 09:46:24;;;;;;;3.08;2.78;;;;;;;30.10;31.99;100103.72;5083943;28;20016;-68
2022/08/01 09:49:05;;;;;;;3.72;2.92;;;;;;;30.13;31.59;100094.91;5065777;28;20029;-68
2022/08/01 09:51:36;;;;;;;10.98;3.22;;;;;;;30.14;32.21;100102.09;5066907;28;20043;-67
2022/08/01 09:54:07;;;;;;;5.75;3.28;;;;;;;30.21;31.66;100094.44;5068372;28;20024;-66
2022/08/01 09:56:42;;;;;;;4.72;2.65;;;;;;;30.16;31.78;100088.84;5067899;28;20054;-68
2022/08/01 09:59:09;;;;;;;9.43;3.30;;;;;;;30.15;32.11;100090.75;5087543;28;20504;-67
2022/08/01 10:01:45;;;;;;;6.70;2.45;;;;;;;30.19;31.83;100086.41;5087955;28;20040;-66
2022/08/01 10:04:16;;;;;;;5.05;2.75;;;;;;;30.25;31.90;100085.31;5079542;28;20031;-67
2022/08/01 10:06:45;;;;;;;8.20;2.60;;;;;;;30.31;31.83;100083.44;5079749;28;20359;-67
2022/08/01 10:09:13;;;;;;;2.90;2.50;;;;;;;30.35;31.82;100082.63;5088424;28;20062;-67
2022/08/01 10:11:41;;;;;;;3.38;2.20;;;;;;;30.42;31.54;100074.06;5069415;28;20123;-67
2022/08/01 10:14:07;;;;;;;2.83;2.40;;;;;;;30.50;31.38;100079.91;5086293;28;20040;-68
2022/08/01 10:16:36;;;;;;;4.05;2.30;;;;;;;30.36;31.56;100045.53;5071430;28;20024;-68
2022/08/01 10:19:06;;;;;;;2.72;2.30;;;;;;;30.59;30.66;100067.22;5081896;28;20036;-67
2022/08/01 10:21:33;;;;;;;3.75;2.40;;;;;;;30.59;30.78;100064.44;5067507;28;20028;-67
2022/08/01 10:24:01;;;;;;;3.47;2.65;;;;;;;30.66;30.22;100066.94;5082994;28;20075;-67
2022/08/01 10:26:29;;;;;;;3.00;2.70;;;;;;;30.64;30.44;100066.41;5067734;28;20032;-67
2022/08/01 10:28:55;;;;;;;2.97;2.25;;;;;;;30.64;30.55;100063.63;5087919;28;20036;-68
2022/08/01 10:31:20;;;;;;;4.03;2.20;;;;;;;30.74;30.03;100065.63;5069022;28;20035;-67
2022/08/01 10:33:46;;;;;;;2.88;2.22;;;;;;;30.73;30.15;100061.19;5088070;28;20757;-68
2022/08/01 10:36:12;;;;;;;2.90;2.20;;;;;;;30.60;30.48;100043.94;5059741;28;20035;-68
2022/08/01 10:38:38;;;;;;;2.95;2.55;;;;;;;30.70;30.26;100062.56;5078275;28;20031;-68
2022/08/01 10:41:05;;;;;;;5.75;2.42;;;;;;;30.70;30.87;100054.25;5087637;28;20510;-67
2022/08/01 10:43:30;;;;;;;4.30;2.45;;;;;;;30.76;30.81;100035.72;5087227;28;20043;-66
2022/08/01 10:45:56;;;;;;;4.20;2.20;;;;;;;30.90;30.58;100051.56;5087660;28;20032;-66
2022/08/01 10:48:54;;;;;;;2.35;2.15;;;;;;;30.87;30.64;100049.34;5087305;28;20024;-67
2022/08/01 10:51:21;;;;;;;5.18;2.65;;;;;;;30.79;29.64;100049.03;5085050;28;20051;-68
2022/08/01 10:53:57;;;;;;;3.22;1.90;;;;;;;30.83;29.65;100036.28;5087435;28;20094;-67
2022/08/01 10:56:23;;;;;;;2.33;2.08;;;;;;;30.83;29.60;100025.22;5087098;28;20028;-68
2022/08/01 10:59:00;;;;;;;5.80;1.90;;;;;;;30.87;29.99;100035.47;5087129;28;20114;-67
2022/08/01 11:01:28;;;;;;;4.13;1.90;;;;;;;30.87;28.39;100021.63;5087225;28;20056;-68
2022/08/01 11:03:57;;;;;;;2.65;1.90;;;;;;;30.98;28.24;100036.34;5087062;28;20035;-67
2022/08/01 11:06:28;;;;;;;3.53;1.85;;;;;;;30.95;28.43;100042.44;5068040;28;20059;-67
2022/08/01 11:08:56;;;;;;;3.72;1.77;;;;;;;30.93;28.64;100039.09;5069489;28;20122;-67
2022/08/01 11:11:22;;;;;;;3.08;1.70;;;;;;;30.95;28.81;100029.38;5086807;28;20427;-67
2022/08/01 11:14:12;;;;;;;4.72;1.90;;;;;;;30.98;29.24;100030.81;5082799;28;20021;-67
2022/08/01 11:16:40;;;;;;;4.30;2.20;;;;;;;31.00;29.37;100028.56;5083806;28;20027;-68
2022/08/01 11:19:10;;;;;;;2.35;1.77;;;;;;;31.06;29.49;100025.53;5078509;28;20036;-67
2022/08/01 11:21:54;;;;;;;3.95;1.85;;;;;;;31.14;30.35;100029.72;5066344;28;20887;-67
2022/08/01 11:24:47;;;;;;;4.55;1.70;;;;;;;31.22;31.17;100020.84;5064523;28;20410;-67
2022/08/01 11:27:29;;;;;;;7.47;2.50;;;;;;;31.34;30.79;100029.75;5066600;28;20025;-67
2022/08/01 11:30:10;;;;;;;6.88;2.33;;;;;;;31.35;29.87;100029.47;5096355;28;20039;-67